Time;durP1;ratioP1;P1;durP2;ratioP2;P2;SDS_P1;SDS_P2;PMS_P1;PMS_P2;Temp;Humidity;BMP_temperature;BMP_pressure;BME280_temperature;BME280_humidity;BME280_pressure;Samples;Min_cycle;Max_cycle;Signal;HPM_P1;HPM_P2
2023/05/04 00:00:12;;;;;;;;;;;6.10;99.90;;;;;;5094585;27;20026;-86
2023/05/04 00:02:37;;;;;;;;;;;4.70;99.90;;;;;;5112263;27;19931;-85
2023/05/04 00:05:04;;;;;;;;;;;6.10;99.90;;;;;;5079208;28;19931;-84
2023/05/04 00:07:30;;;;;;;;;;;6.10;99.90;;;;;;5112117;28;19967;-84
2023/05/04 00:09:56;;;;;;;;;;;6.10;99.90;;;;;;5111271;28;19924;-85
2023/05/04 00:12:21;;;;;;;;;;;6.10;99.90;;;;;;5092813;28;19975;-84
2023/05/04 00:14:47;;;;;;;;;;;6.00;99.90;;;;;;5114270;27;19927;-84
2023/05/04 00:17:13;;;;;;;;;;;6.00;99.90;;;;;;5097307;27;19981;-85
2023/05/04 00:19:40;;;;;;;;;;;6.10;99.90;;;;;;5079131;28;20294;-85
2023/05/04 00:22:06;;;;;;;;;;;6.00;99.90;;;;;;5096368;27;20011;-85
2023/05/04 00:24:32;;;;;;;;;;;6.00;99.90;;;;;;5099169;27;20060;-84
2023/05/04 00:26:58;;;;;;;;;;;6.00;99.90;;;;;;5115840;27;19988;-84
2023/05/04 00:29:23;;;;;;;;;;;5.90;99.90;;;;;;5098442;27;19931;-85
2023/05/04 00:31:49;;;;;;;;;;;5.80;99.90;;;;;;5098115;27;20037;-85
2023/05/04 00:34:15;;;;;;;;;;;5.90;99.90;;;;;;5095207;28;19923;-84
2023/05/04 00:36:45;;;;;;;;;;;5.80;99.90;;;;;;5096316;27;19927;-85
2023/05/04 00:39:10;;;;;;;;;;;5.80;99.90;;;;;;5098677;27;19931;-85
2023/05/04 00:41:36;;;;;;;;;;;5.80;99.90;;;;;;5095212;28;19992;-84
2023/05/04 00:44:03;;;;;;;;;;;5.80;99.90;;;;;;5114576;27;19924;-84
2023/05/04 00:46:29;;;;;;;;;;;5.80;99.90;;;;;;5097086;28;20354;-85
2023/05/04 00:48:55;;;;;;;;;;;5.80;99.90;;;;;;5097548;27;19924;-85
2023/05/04 00:51:22;;;;;;;;;;;5.80;99.90;;;;;;5109141;28;19946;-84
2023/05/04 00:53:48;;;;;;;;;;;5.70;99.90;;;;;;5112302;28;19946;-84
2023/05/04 00:56:15;;;;;;;;;;;3.50;99.90;;;;;;5094547;28;20365;-84
2023/05/04 00:58:40;;;;;;;;;;;5.70;99.90;;;;;;5085836;28;19932;-84
2023/05/04 01:01:07;;;;;;;;;;;5.70;99.90;;;;;;5089183;28;19931;-84
2023/05/04 01:03:32;;;;;;;;;;;5.90;99.90;;;;;;5091530;28;19931;-84
2023/05/04 01:06:18;;;;;;;;;;;5.70;99.90;;;;;;5111329;28;19924;-85
2023/05/04 01:08:45;;;;;;;;;;;5.60;99.90;;;;;;5083865;28;20256;-84
2023/05/04 01:11:19;;;;;;;;;;;5.60;99.90;;;;;;5111694;28;19927;-84
2023/05/04 01:13:45;;;;;;;;;;;5.60;99.90;;;;;;5082279;28;19924;-84
2023/05/04 01:16:12;;;;;;;;;;;5.50;99.90;;;;;;5092003;28;20053;-84
2023/05/04 01:18:37;;;;;;;;;;;5.50;99.90;;;;;;5093458;28;20398;-84
2023/05/04 01:21:03;;;;;;;;;;;6.00;99.90;;;;;;5093030;28;19959;-84
2023/05/04 01:23:29;;;;;;;;;;;5.50;99.90;;;;;;5070849;28;19947;-84
2023/05/04 01:26:15;;;;;;;;;;;5.60;99.90;;;;;;5101052;28;19924;-85
2023/05/04 01:28:48;;;;;;;;;;;5.60;99.90;;;;;;5104834;28;19974;-84
2023/05/04 01:31:15;;;;;;;;;;;5.10;99.90;;;;;;5080691;28;19924;-84
2023/05/04 01:33:43;;;;;;;;;;;5.50;99.90;;;;;;5090246;28;20275;-84
2023/05/04 01:36:08;;;;;;;;;;;5.40;99.90;;;;;;5109651;28;20334;-84
2023/05/04 01:38:34;;;;;;;;;;;5.40;99.90;;;;;;5095995;28;20403;-85
2023/05/04 01:41:00;;;;;;;;;;;5.40;99.90;;;;;;5093346;28;20012;-84
2023/05/04 01:43:25;;;;;;;;;;;5.40;99.90;;;;;;5075244;28;20275;-84
2023/05/04 01:45:51;;;;;;;;;;;5.40;99.90;;;;;;5113578;28;19924;-85
2023/05/04 01:48:17;;;;;;;;;;;5.40;99.90;;;;;;5097569;28;20447;-84
2023/05/04 01:50:42;;;;;;;;;;;5.40;99.90;;;;;;5080848;28;19923;-84
2023/05/04 01:53:08;;;;;;;;;;;5.40;99.90;;;;;;5099065;28;19923;-84
2023/05/04 01:55:33;;;;;;;;;;;5.40;99.90;;;;;;5098190;28;19963;-84
2023/05/04 01:57:59;;;;;;;;;;;5.40;99.90;;;;;;5077690;28;20039;-84
2023/05/04 02:00:25;;;;;;;;;;;4.90;99.90;;;;;;5105222;28;20308;-85
2023/05/04 02:02:51;;;;;;;;;;;5.40;99.90;;;;;;5109024;28;19924;-84
2023/05/04 02:05:16;;;;;;;;;;;5.40;99.90;;;;;;5087627;28;19999;-84
2023/05/04 02:07:42;;;;;;;;;;;5.40;99.90;;;;;;5095003;28;20402;-84
2023/05/04 02:10:08;;;;;;;;;;;5.40;99.90;;;;;;5102429;28;19928;-84
2023/05/04 02:12:33;;;;;;;;;;;5.40;99.90;;;;;;5083723;28;19931;-84
2023/05/04 02:14:59;;;;;;;;;;;5.50;99.90;;;;;;5089055;28;19935;-84
2023/05/04 02:17:25;;;;;;;;;;;5.40;99.90;;;;;;5091439;28;20014;-85
2023/05/04 02:19:50;;;;;;;;;;;5.40;99.90;;;;;;5084796;28;19924;-84
2023/05/04 02:22:16;;;;;;;;;;;5.40;99.90;;;;;;5089323;28;19970;-84
2023/05/04 02:24:43;;;;;;;;;;;5.40;99.90;;;;;;5110348;28;19928;-84
2023/05/04 02:27:08;;;;;;;;;;;5.50;99.90;;;;;;5085840;28;20016;-84
2023/05/04 02:29:34;;;;;;;;;;;5.40;99.90;;;;;;5093590;28;20034;-84
2023/05/04 02:31:59;;;;;;;;;;;5.30;99.90;;;;;;5106118;28;19977;-83
2023/05/04 02:34:25;;;;;;;;;;;5.40;99.90;;;;;;5091039;28;20241;-83
2023/05/04 02:36:51;;;;;;;;;;;5.40;99.90;;;;;;5076015;28;19928;-84
2023/05/04 02:39:16;;;;;;;;;;;5.40;99.90;;;;;;5085988;28;19924;-83
2023/05/04 02:41:42;;;;;;;;;;;5.40;99.90;;;;;;5073693;28;20318;-84
2023/05/04 02:44:07;;;;;;;;;;;5.40;99.90;;;;;;5094850;28;19961;-83
2023/05/04 02:46:33;;;;;;;;;;;5.40;99.90;;;;;;5102138;28;19986;-84
2023/05/04 02:48:59;;;;;;;;;;;5.40;99.90;;;;;;5094469;28;20012;-84
2023/05/04 02:51:27;;;;;;;;;;;5.40;99.90;;;;;;5077581;28;19924;-84
2023/05/04 02:53:52;;;;;;;;;;;5.40;99.90;;;;;;5109808;28;20434;-84
2023/05/04 02:56:18;;;;;;;;;;;5.40;99.90;;;;;;5088746;28;19963;-84
2023/05/04 02:58:44;;;;;;;;;;;5.40;99.90;;;;;;5075387;28;19928;-84
2023/05/04 03:01:09;;;;;;;;;;;5.40;99.90;;;;;;5102038;28;19932;-84
2023/05/04 03:03:35;;;;;;;;;;;5.50;99.90;;;;;;5110090;28;19931;-84
2023/05/04 03:06:00;;;;;;;;;;;5.50;99.90;;;;;;5070577;28;20390;-84
2023/05/04 03:08:28;;;;;;;;;;;5.50;99.90;;;;;;5106004;28;19924;-84
2023/05/04 03:10:53;;;;;;;;;;;5.40;99.90;;;;;;5079184;28;19924;-85
2023/05/04 03:13:19;;;;;;;;;;;5.50;99.90;;;;;;5114241;28;19934;-84
2023/05/04 03:15:45;;;;;;;;;;;5.50;99.90;;;;;;5110547;28;19924;-83
2023/05/04 03:18:11;;;;;;;;;;;5.50;99.90;;;;;;5108665;28;19973;-83
2023/05/04 03:20:36;;;;;;;;;;;5.60;99.90;;;;;;5105342;28;19923;-83
2023/05/04 03:23:02;;;;;;;;;;;4.60;99.90;;;;;;5076901;28;19924;-83
2023/05/04 03:25:27;;;;;;;;;;;5.50;99.90;;;;;;5088949;28;19924;-84
2023/05/04 03:27:53;;;;;;;;;;;5.50;99.90;;;;;;5086282;28;19924;-84
2023/05/04 03:30:19;;;;;;;;;;;6.00;99.90;;;;;;5096373;28;20271;-83
2023/05/04 03:32:44;;;;;;;;;;;5.50;99.90;;;;;;5073537;28;19924;-84
2023/05/04 03:35:10;;;;;;;;;;;5.60;99.90;;;;;;5084186;28;20333;-84
2023/05/04 03:37:35;;;;;;;;;;;5.60;99.90;;;;;;5110840;28;19923;-84
2023/05/04 03:40:02;;;;;;;;;;;5.60;99.90;;;;;;5101100;28;19947;-84
2023/05/04 03:42:27;;;;;;;;;;;5.60;99.90;;;;;;5105434;28;19927;-84
2023/05/04 03:44:53;;;;;;;;;;;5.60;99.90;;;;;;5084274;28;20007;-84
2023/05/04 03:47:19;;;;;;;;;;;5.60;99.90;;;;;;5088873;28;19924;-84
2023/05/04 03:49:44;;;;;;;;;;;5.60;99.90;;;;;;5096148;28;19924;-83
2023/05/04 03:52:10;;;;;;;;;;;5.60;99.90;;;;;;5093351;28;20041;-83
2023/05/04 03:54:35;;;;;;;;;;;5.60;99.90;;;;;;5073581;28;20291;-84
2023/05/04 03:57:03;;;;;;;;;;;5.70;99.90;;;;;;5090879;28;19924;-83
2023/05/04 03:59:29;;;;;;;;;;;5.70;99.90;;;;;;5070876;28;20010;-83
2023/05/04 04:01:54;;;;;;;;;;;5.70;99.90;;;;;;5095940;28;19924;-83
2023/05/04 04:04:20;;;;;;;;;;;5.80;99.90;;;;;;5101355;28;19947;-84
2023/05/04 04:06:51;;;;;;;;;;;5.70;99.90;;;;;;5102514;28;19931;-83
2023/05/04 04:09:17;;;;;;;;;;;5.80;99.90;;;;;;5072619;28;19924;-85
2023/05/04 04:11:43;;;;;;;;;;;5.70;99.90;;;;;;5093255;28;20494;-84
2023/05/04 04:14:08;;;;;;;;;;;5.70;99.90;;;;;;5095440;28;19924;-84
2023/05/04 04:16:34;;;;;;;;;;;5.80;99.90;;;;;;5088139;28;19968;-84
2023/05/04 04:19:02;;;;;;;;;;;5.70;99.90;;;;;;5086457;28;19928;-84
2023/05/04 04:21:28;;;;;;;;;;;5.70;99.90;;;;;;5092399;28;19974;-84
2023/05/04 04:23:53;;;;;;;;;;;5.70;99.90;;;;;;5083417;28;19924;-84
2023/05/04 04:26:20;;;;;;;;;;;5.70;99.90;;;;;;5095391;28;19928;-84
2023/05/04 04:28:49;;;;;;;;;;;5.70;99.90;;;;;;5103134;28;19924;-83
2023/05/04 04:31:18;;;;;;;;;;;5.80;99.90;;;;;;5108560;28;20383;-85
2023/05/04 04:33:43;;;;;;;;;;;5.80;99.90;;;;;;5078676;28;19924;-84
2023/05/04 04:36:11;;;;;;;;;;;5.80;99.90;;;;;;5093139;28;19954;-83
2023/05/04 04:38:38;;;;;;;;;;;5.80;99.90;;;;;;5092788;28;20287;-84
2023/05/04 04:41:04;;;;;;;;;;;5.80;99.90;;;;;;5092103;28;19954;-84
2023/05/04 04:43:29;;;;;;;;;;;5.80;99.90;;;;;;5102877;28;19931;-84
2023/05/04 04:45:55;;;;;;;;;;;5.70;99.90;;;;;;5095120;28;20312;-83
2023/05/04 04:48:24;;;;;;;;;;;6.10;99.90;;;;;;5106500;28;20368;-83
2023/05/04 04:50:49;;;;;;;;;;;5.80;99.90;;;;;;5102417;28;19928;-85
2023/05/04 04:53:15;;;;;;;;;;;5.80;99.90;;;;;;5095558;28;19924;-84
2023/05/04 04:55:41;;;;;;;;;;;5.90;99.90;;;;;;5095549;28;19923;-84
2023/05/04 04:58:08;;;;;;;;;;;5.80;99.90;;;;;;5091288;28;19924;-83
2023/05/04 05:00:34;;;;;;;;;;;6.10;99.90;;;;;;5089051;28;20302;-84
2023/05/04 05:03:00;;;;;;;;;;;5.90;99.90;;;;;;5093443;28;19953;-84
2023/05/04 05:05:26;;;;;;;;;;;5.90;99.90;;;;;;5064701;28;19924;-84
2023/05/04 05:07:51;;;;;;;;;;;6.00;99.90;;;;;;5073581;28;19924;-84
2023/05/04 05:10:17;;;;;;;;;;;6.00;99.90;;;;;;5105269;28;19928;-84
2023/05/04 05:12:43;;;;;;;;;;;6.10;99.90;;;;;;5089581;28;19931;-84
2023/05/04 05:15:09;;;;;;;;;;;6.00;99.90;;;;;;5091212;28;19923;-84
2023/05/04 05:17:36;;;;;;;;;;;6.10;99.90;;;;;;5107680;28;19931;-84
2023/05/04 05:20:02;;;;;;;;;;;6.10;99.90;;;;;;5092226;28;19931;-83
2023/05/04 05:22:28;;;;;;;;;;;6.10;99.90;;;;;;5093408;28;20325;-83
2023/05/04 05:24:53;;;;;;;;;;;6.20;99.90;;;;;;5086752;28;19935;-84
2023/05/04 05:27:19;;;;;;;;;;;6.30;99.90;;;;;;5074279;28;19927;-84
2023/05/04 05:29:45;;;;;;;;;;;6.30;99.90;;;;;;5070636;28;19924;-83
2023/05/04 05:32:11;;;;;;;;;;;6.30;99.90;;;;;;5071271;28;20383;-84
2023/05/04 05:34:37;;;;;;;;;;;6.40;99.90;;;;;;5095161;28;19934;-84
2023/05/04 05:37:04;;;;;;;;;;;6.50;99.90;;;;;;5108656;28;19924;-84
2023/05/04 05:39:29;;;;;;;;;;;6.50;99.90;;;;;;5087444;28;19928;-85
2023/05/04 05:41:58;;;;;;;;;;;6.60;99.90;;;;;;5099227;28;20276;-84
2023/05/04 05:44:24;;;;;;;;;;;6.50;99.90;;;;;;5104574;28;19924;-84
2023/05/04 05:46:49;;;;;;;;;;;6.50;99.90;;;;;;5109770;28;19934;-84
2023/05/04 05:49:15;;;;;;;;;;;6.50;99.90;;;;;;5091983;28;20451;-85
2023/05/04 05:51:40;;;;;;;;;;;6.50;99.90;;;;;;5103609;28;19924;-84
2023/05/04 05:54:06;;;;;;;;;;;6.50;99.90;;;;;;5091155;28;19924;-83
2023/05/04 05:56:32;;;;;;;;;;;6.60;99.90;;;;;;5077171;28;19959;-84
2023/05/04 05:58:57;;;;;;;;;;;6.70;99.90;;;;;;5096858;28;20300;-84
2023/05/04 06:01:23;;;;;;;;;;;6.60;99.90;;;;;;5104695;28;20283;-84
2023/05/04 06:03:48;;;;;;;;;;;6.70;99.90;;;;;;5104791;28;19932;-84
2023/05/04 06:06:14;;;;;;;;;;;6.80;99.90;;;;;;5092542;28;20365;-84
2023/05/04 06:08:40;;;;;;;;;;;6.80;99.90;;;;;;5092857;28;19965;-84
2023/05/04 06:11:05;;;;;;;;;;;7.00;99.90;;;;;;5103551;28;19947;-84
2023/05/04 06:13:31;;;;;;;;;;;7.00;99.90;;;;;;5091217;28;20068;-84
2023/05/04 06:15:57;;;;;;;;;;;7.10;99.90;;;;;;5091390;28;19935;-84
2023/05/04 06:18:22;;;;;;;;;;;7.10;99.90;;;;;;5089330;28;19931;-84
2023/05/04 06:20:48;;;;;;;;;;;7.20;99.90;;;;;;5076604;28;19963;-83
2023/05/04 06:23:14;;;;;;;;;;;7.20;99.90;;;;;;5104241;28;20015;-83
2023/05/04 06:25:40;;;;;;;;;;;7.20;99.90;;;;;;5083942;28;20232;-85
2023/05/04 06:28:06;;;;;;;;;;;7.30;99.90;;;;;;5105422;28;19931;-84
2023/05/04 06:30:31;;;;;;;;;;;8.50;99.90;;;;;;5074220;28;20341;-85
2023/05/04 06:32:59;;;;;;;;;;;7.40;99.90;;;;;;5088722;28;19982;-86
2023/05/04 06:35:25;;;;;;;;;;;7.40;99.90;;;;;;5096060;28;19924;-84
2023/05/04 06:37:51;;;;;;;;;;;7.50;99.90;;;;;;5087114;28;20034;-84
2023/05/04 06:40:16;;;;;;;;;;;7.60;99.90;;;;;;5091090;28;19931;-85
2023/05/04 06:42:42;;;;;;;;;;;7.60;99.90;;;;;;5089435;28;19982;-84
2023/05/04 06:45:08;;;;;;;;;;;7.80;99.90;;;;;;5091645;28;19924;-83
2023/05/04 06:47:35;;;;;;;;;;;7.70;99.90;;;;;;5106182;28;20006;-84
2023/05/04 06:50:01;;;;;;;;;;;8.00;99.90;;;;;;5092189;28;19977;-84
2023/05/04 06:52:28;;;;;;;;;;;7.80;99.90;;;;;;5091894;28;19932;-84
2023/05/04 06:54:54;;;;;;;;;;;7.90;99.90;;;;;;5108299;28;20356;-84
2023/05/04 06:57:19;;;;;;;;;;;7.90;99.90;;;;;;5103918;28;19978;-84
2023/05/04 06:59:45;;;;;;;;;;;7.90;99.90;;;;;;5104778;28;19924;-84
2023/05/04 07:02:10;;;;;;;;;;;8.20;99.90;;;;;;5089103;28;19935;-84
2023/05/04 07:04:36;;;;;;;;;;;8.00;99.90;;;;;;5094006;28;20011;-84
2023/05/04 07:07:02;;;;;;;;;;;8.10;99.90;;;;;;5068113;28;19924;-84
2023/05/04 07:09:27;;;;;;;;;;;8.20;99.90;;;;;;5096205;28;19924;-84
2023/05/04 07:11:53;;;;;;;;;;;8.30;99.90;;;;;;5101582;28;20001;-83
2023/05/04 07:14:19;;;;;;;;;;;8.40;99.90;;;;;;5107269;28;19924;-85
2023/05/04 07:16:44;;;;;;;;;;;8.40;99.90;;;;;;5079865;28;19924;-84
2023/05/04 07:19:10;;;;;;;;;;;8.50;99.90;;;;;;5077379;28;20409;-83
2023/05/04 07:21:39;;;;;;;;;;;8.50;99.90;;;;;;5095507;28;19924;-84
2023/05/04 07:24:05;;;;;;;;;;;6.70;99.90;;;;;;5078895;28;20322;-84
2023/05/04 07:26:31;;;;;;;;;;;8.60;99.90;;;;;;5088423;28;20394;-84
2023/05/04 07:28:56;;;;;;;;;;;8.80;99.90;;;;;;5090649;28;19924;-84
2023/05/04 07:31:22;;;;;;;;;;;8.80;99.90;;;;;;5095224;28;19924;-83
2023/05/04 07:33:48;;;;;;;;;;;8.80;99.90;;;;;;5078908;28;20372;-84
2023/05/04 07:36:13;;;;;;;;;;;8.80;99.90;;;;;;5107531;28;19924;-85
2023/05/04 07:38:39;;;;;;;;;;;8.80;99.90;;;;;;5096265;28;19950;-83
2023/05/04 07:41:06;;;;;;;;;;;9.00;99.90;;;;;;5079507;28;19923;-84
2023/05/04 07:43:31;;;;;;;;;;;9.00;99.90;;;;;;5076378;28;20368;-84
2023/05/04 07:45:57;;;;;;;;;;;9.00;99.90;;;;;;5111717;28;19927;-83
2023/05/04 07:48:22;;;;;;;;;;;9.10;99.90;;;;;;5087860;28;19977;-84
2023/05/04 07:50:49;;;;;;;;;;;9.20;99.90;;;;;;5105213;28;20000;-84
2023/05/04 07:53:14;;;;;;;;;;;9.30;99.90;;;;;;5071132;28;19931;-84
2023/05/04 07:55:40;;;;;;;;;;;9.50;99.90;;;;;;5092580;28;19924;-84
2023/05/04 07:58:06;;;;;;;;;;;9.50;99.90;;;;;;5095488;28;19924;-83
2023/05/04 08:00:31;;;;;;;;;;;9.60;99.90;;;;;;5095829;28;19924;-84
2023/05/04 08:02:57;;;;;;;;;;;9.70;99.90;;;;;;5098266;28;19924;-84
2023/05/04 08:05:22;;;;;;;;;;;9.80;99.90;;;;;;5076075;28;19924;-83
2023/05/04 08:07:48;;;;;;;;;;;9.90;99.90;;;;;;5080892;28;19934;-85
2023/05/04 08:10:14;;;;;;;;;;;10.00;99.90;;;;;;5069740;28;19952;-84
2023/05/04 08:12:39;;;;;;;;;;;10.10;99.90;;;;;;5107377;28;19934;-83
2023/05/04 08:15:06;;;;;;;;;;;7.90;99.90;;;;;;5099758;28;19924;-83
2023/05/04 08:17:33;;;;;;;;;;;10.20;99.90;;;;;;5075893;28;19932;-84
2023/05/04 08:19:59;;;;;;;;;;;10.30;99.90;;;;;;5100208;28;19928;-83
2023/05/04 08:22:25;;;;;;;;;;;10.40;99.90;;;;;;5084269;28;19931;-84
2023/05/04 08:24:51;;;;;;;;;;;10.50;99.90;;;;;;5075119;28;19924;-84
2023/05/04 08:27:17;;;;;;;;;;;10.50;99.90;;;;;;5091836;28;19931;-83
2023/05/04 08:29:42;;;;;;;;;;;10.60;99.90;;;;;;5072486;28;19928;-83
2023/05/04 08:32:08;;;;;;;;;;;10.70;99.90;;;;;;5086115;28;19973;-85
2023/05/04 08:34:34;;;;;;;;;;;10.90;99.90;;;;;;5072065;28;19985;-83
2023/05/04 08:37:01;;;;;;;;;;;11.00;99.90;;;;;;5073769;28;20439;-84
2023/05/04 08:39:26;;;;;;;;;;;11.10;99.90;;;;;;5109328;28;19951;-84
2023/05/04 08:41:52;;;;;;;;;;;11.20;99.90;;;;;;5072508;28;19962;-85
2023/05/04 08:44:18;;;;;;;;;;;11.30;99.90;;;;;;5075519;28;20416;-84
2023/05/04 08:46:51;;;;;;;;;;;11.50;99.90;;;;;;5086825;28;20352;-83
2023/05/04 08:49:17;;;;;;;;;;;11.50;99.90;;;;;;5103959;28;20299;-84
2023/05/04 08:51:44;;;;;;;;;;;11.60;99.90;;;;;;5087817;28;20343;-83
2023/05/04 08:54:10;;;;;;;;;;;11.70;99.90;;;;;;5086617;28;19974;-84
2023/05/04 08:56:37;;;;;;;;;;;11.80;99.90;;;;;;5065988;28;19959;-83
2023/05/04 08:59:03;;;;;;;;;;;11.90;99.90;;;;;;5084118;28;19974;-84
2023/05/04 09:01:30;;;;;;;;;;;10.50;99.90;;;;;;5094247;28;19962;-84
2023/05/04 09:03:55;;;;;;;;;;;12.00;99.90;;;;;;5083536;28;19924;-84
2023/05/04 09:06:21;;;;;;;;;;;12.00;99.90;;;;;;5096047;28;19930;-84
2023/05/04 09:08:47;;;;;;;;;;;12.10;99.90;;;;;;5091741;28;19924;-84
2023/05/04 09:11:12;;;;;;;;;;;12.20;99.90;;;;;;5105334;28;19927;-83
2023/05/04 09:13:38;;;;;;;;;;;12.30;99.90;;;;;;5081409;28;19923;-84
2023/05/04 09:16:04;;;;;;;;;;;12.40;99.90;;;;;;5081542;28;20392;-84
2023/05/04 09:18:36;;;;;;;;;;;12.50;99.90;;;;;;5090451;28;20367;-84
2023/05/04 09:21:02;;;;;;;;;;;12.70;99.90;;;;;;5087281;28;19924;-84
2023/05/04 09:23:28;;;;;;;;;;;12.80;99.90;;;;;;5092977;28;19930;-84
2023/05/04 09:25:54;;;;;;;;;;;12.80;99.90;;;;;;5095495;28;19967;-85
2023/05/04 09:28:20;;;;;;;;;;;12.90;99.90;;;;;;5106363;28;20273;-84
2023/05/04 09:30:47;;;;;;;;;;;13.00;99.90;;;;;;5108702;28;19924;-84
2023/05/04 09:33:23;;;;;;;;;;;13.00;99.90;;;;;;5089650;28;19924;-84
2023/05/04 09:35:50;;;;;;;;;;;13.10;99.90;;;;;;5090844;28;20014;-85
2023/05/04 09:38:28;;;;;;;;;;;13.40;99.90;;;;;;5098839;28;19923;-84
2023/05/04 09:40:54;;;;;;;;;;;13.50;99.90;;;;;;5097933;28;19924;-85
2023/05/04 09:43:20;;;;;;;;;;;13.40;99.90;;;;;;5107446;28;19981;-84
2023/05/04 09:45:46;;;;;;;;;;;13.40;99.90;;;;;;5097257;28;19962;-84
2023/05/04 09:48:27;;;;;;;;;;;13.40;99.90;;;;;;5081923;27;19923;-84
2023/05/04 09:50:57;;;;;;;;;;;13.40;99.90;;;;;;5104236;28;20261;-85
2023/05/04 09:53:24;;;;;;;;;;;13.40;99.90;;;;;;5116561;27;19923;-85
2023/05/04 09:56:10;;;;;;;;;;;13.50;99.90;;;;;;5102283;27;20324;-85
2023/05/04 09:58:36;;;;;;;;;;;13.60;99.90;;;;;;5041216;27;20313;-84
2023/05/04 10:01:05;;;;;;;;;;;13.70;99.90;;;;;;5108570;27;20010;-84
2023/05/04 10:03:31;;;;;;;;;;;13.80;99.90;;;;;;5101290;27;19924;-84
2023/05/04 10:05:58;;;;;;;;;;;13.90;99.90;;;;;;5085457;27;19924;-83
2023/05/04 10:08:24;;;;;;;;;;;14.00;99.90;;;;;;5086935;28;19924;-84
2023/05/04 10:10:51;;;;;;;;;;;14.00;99.90;;;;;;5102281;27;19935;-84
2023/05/04 10:13:16;;;;;;;;;;;14.10;99.90;;;;;;5099635;27;20011;-83
2023/05/04 10:15:53;;;;;;;;;;;14.10;99.90;;;;;;5110172;28;20023;-84
2023/05/04 10:18:25;;;;;;;;;;;14.20;99.90;;;;;;5099625;28;19924;-83
2023/05/04 10:20:57;;;;;;;;;;;14.10;99.90;;;;;;5099840;27;19931;-85
2023/05/04 10:23:25;;;;;;;;;;;14.20;99.90;;;;;;5115474;28;19924;-84
2023/05/04 10:26:21;;;;;;;;;;;14.30;99.90;;;;;;5100872;27;19924;-84
2023/05/04 10:28:56;;;;;;;;;;;14.40;99.90;;;;;;5076641;28;19923;-84
2023/05/04 10:31:22;;;;;;;;;;;14.50;99.90;;;;;;5127905;27;19930;-84
2023/05/04 10:33:47;;;;;;;;;;;14.60;99.90;;;;;;5083498;27;20312;-84
2023/05/04 10:36:13;;;;;;;;;;;14.80;99.90;;;;;;5098388;28;19928;-84
2023/05/04 10:38:39;;;;;;;;;;;14.80;99.90;;;;;;5116531;27;20141;-84
2023/05/04 10:41:17;;;;;;;;;;;14.80;99.90;;;;;;5106588;27;19939;-84
2023/05/04 10:43:47;;;;;;;;;;;14.90;99.90;;;;;;5112408;27;19923;-83
2023/05/04 10:46:17;;;;;;;;;;;15.10;99.90;;;;;;5113532;28;19923;-84
2023/05/04 10:48:42;;;;;;;;;;;15.20;99.90;;;;;;5112140;27;20006;-84
2023/05/04 10:51:16;;;;;;;;;;;15.40;99.90;;;;;;5099894;27;20365;-84
2023/05/04 10:53:41;;;;;;;;;;;15.40;99.90;;;;;;5100587;27;19931;-84
2023/05/04 10:56:18;;;;;;;;;;;15.40;99.00;;;;;;5109380;28;19923;-84
2023/05/04 10:58:43;;;;;;;;;;;15.40;99.70;;;;;;5097591;27;19935;-83
2023/05/04 11:01:12;;;;;;;;;;;17.00;99.90;;;;;;5117312;27;19931;-84
2023/05/04 11:03:39;;;;;;;;;;;15.50;99.90;;;;;;5081791;28;20026;-84
2023/05/04 11:06:18;;;;;;;;;;;15.50;99.00;;;;;;5114194;27;20237;-83
2023/05/04 11:08:45;;;;;;;;;;;15.60;99.10;;;;;;5107449;27;19930;-84
2023/05/04 11:11:10;;;;;;;;;;;15.80;99.70;;;;;;5107132;27;20546;-84
2023/05/04 11:13:40;;;;;;;;;;;15.80;99.80;;;;;;5084079;27;20006;-83
2023/05/04 11:16:06;;;;;;;;;;;15.90;98.40;;;;;;5113784;28;19923;-84
2023/05/04 11:18:33;;;;;;;;;;;16.00;98.40;;;;;;5109844;27;20386;-84
2023/05/04 11:20:59;;;;;;;;;;;16.10;97.30;;;;;;5091780;28;19924;-84
2023/05/04 11:23:25;;;;;;;;;;;16.10;97.40;;;;;;5113599;27;19954;-84
2023/05/04 11:25:51;;;;;;;;;;;16.10;96.70;;;;;;5113675;28;19950;-85
2023/05/04 11:28:17;;;;;;;;;;;16.10;96.60;;;;;;5113980;27;19982;-84
2023/05/04 11:30:45;;;;;;;;;;;16.10;97.30;;;;;;5100044;27;19931;-84
2023/05/04 11:33:11;;;;;;;;;;;16.20;96.90;;;;;;5079135;28;20398;-83
2023/05/04 11:35:37;;;;;;;;;;;16.20;96.90;;;;;;5111106;28;20375;-84
2023/05/04 11:38:02;;;;;;;;;;;16.30;95.70;;;;;;5110842;27;19968;-84
2023/05/04 11:40:28;;;;;;;;;;;16.50;96.40;;;;;;5080380;28;19931;-84
2023/05/04 11:42:55;;;;;;;;;;;16.60;95.80;;;;;;5113382;28;19924;-84
2023/05/04 11:45:22;;;;;;;;;;;16.70;95.30;;;;;;5102073;28;19931;-84
2023/05/04 11:47:48;;;;;;;;;;;16.70;94.60;;;;;;5092736;28;19924;-84
2023/05/04 11:50:15;;;;;;;;;;;16.70;94.60;;;;;;5084898;28;19924;-84
2023/05/04 11:52:41;;;;;;;;;;;16.80;93.80;;;;;;5081106;28;19931;-84
2023/05/04 11:55:12;;;;;;;;;;;16.80;93.50;;;;;;5107865;28;19935;-83
2023/05/04 11:57:37;;;;;;;;;;;16.90;93.60;;;;;;5103886;27;19930;-84
2023/05/04 12:00:04;;;;;;;;;;;17.10;93.10;;;;;;5091722;28;19924;-84
2023/05/04 12:02:30;;;;;;;;;;;17.40;92.70;;;;;;5090620;28;19957;-84
2023/05/04 12:04:55;;;;;;;;;;;17.30;92.00;;;;;;5113281;27;19923;-85
2023/05/04 12:07:21;;;;;;;;;;;17.30;91.80;;;;;;5088783;28;20335;-85
2023/05/04 12:09:47;;;;;;;;;;;17.30;91.60;;;;;;5106979;27;19928;-84
2023/05/04 12:12:14;;;;;;;;;;;17.50;92.00;;;;;;5110328;27;19976;-85
2023/05/04 12:14:50;;;;;;;;;;;17.40;91.50;;;;;;5079211;28;19943;-84
2023/05/04 12:17:15;;;;;;;;;;;17.50;92.10;;;;;;5112449;27;20286;-84
2023/05/04 12:19:51;;;;;;;;;;;17.70;91.00;;;;;;5092120;27;19927;-84
2023/05/04 12:22:24;;;;;;;;;;;17.70;90.50;;;;;;5088174;27;19930;-83
2023/05/04 12:24:52;;;;;;;;;;;17.90;89.10;;;;;;5102858;28;19928;-85
2023/05/04 12:27:18;;;;;;;;;;;17.80;85.60;;;;;;5097007;27;20363;-84
2023/05/04 12:29:43;;;;;;;;;;;17.60;87.00;;;;;;5090067;27;19924;-86
2023/05/04 12:32:09;;;;;;;;;;;17.60;87.40;;;;;;5093453;27;19932;-84
2023/05/04 12:34:35;;;;;;;;;;;17.70;88.90;;;;;;5103827;27;20311;-84
2023/05/04 12:37:01;;;;;;;;;;;17.80;86.60;;;;;;5112414;28;19931;-84
2023/05/04 12:39:28;;;;;;;;;;;17.80;85.30;;;;;;5110545;27;20260;-84
2023/05/04 12:41:54;;;;;;;;;;;17.80;85.50;;;;;;5089827;28;19931;-84
2023/05/04 12:44:20;;;;;;;;;;;17.80;85.00;;;;;;5103034;27;19927;-85
2023/05/04 12:46:45;;;;;;;;;;;18.70;84.60;;;;;;5093411;28;20014;-84
2023/05/04 12:49:13;;;;;;;;;;;18.00;85.80;;;;;;5097177;27;20379;-84
2023/05/04 12:51:38;;;;;;;;;;;18.10;85.20;;;;;;5087562;27;20037;-84
2023/05/04 12:54:04;;;;;;;;;;;18.20;83.30;;;;;;5087320;28;19972;-84
2023/05/04 12:56:31;;;;;;;;;;;18.30;83.40;;;;;;5092559;28;19927;-85
2023/05/04 12:58:56;;;;;;;;;;;18.30;83.50;;;;;;5073767;28;19927;-85
2023/05/04 13:01:22;;;;;;;;;;;18.10;81.50;;;;;;5081373;28;19976;-84
2023/05/04 13:03:50;;;;;;;;;;;18.10;82.90;;;;;;5115581;28;19994;-84
2023/05/04 13:06:16;;;;;;;;;;;18.10;84.10;;;;;;5099946;28;19923;-84
2023/05/04 13:08:43;;;;;;;;;;;18.20;81.40;;;;;;5091553;28;19972;-84
2023/05/04 13:11:08;;;;;;;;;;;18.30;83.10;;;;;;5098428;28;19927;-86
2023/05/04 13:13:34;;;;;;;;;;;18.40;83.60;;;;;;5110508;27;19923;-84
2023/05/04 13:16:00;;;;;;;;;;;18.50;82.40;;;;;;5081193;28;19977;-85
2023/05/04 13:18:26;;;;;;;;;;;18.60;83.50;;;;;;5101808;27;20240;-85
2023/05/04 13:20:55;;;;;;;;;;;18.80;80.40;;;;;;5091469;27;20283;-85
2023/05/04 13:23:20;;;;;;;;;;;18.80;80.80;;;;;;5114586;28;19928;-84
2023/05/04 13:25:48;;;;;;;;;;;18.60;82.70;;;;;;5102792;27;19923;-84
2023/05/04 13:28:13;;;;;;;;;;;18.80;82.70;;;;;;5099342;27;19949;-85
2023/05/04 13:30:39;;;;;;;;;;;18.70;83.30;;;;;;5075598;28;20014;-84
2023/05/04 13:33:05;;;;;;;;;;;18.60;81.70;;;;;;5096639;28;19924;-85
2023/05/04 13:35:30;;;;;;;;;;;18.30;82.00;;;;;;5102266;28;19931;-85
2023/05/04 13:37:56;;;;;;;;;;;18.30;83.00;;;;;;5093360;28;19947;-85
2023/05/04 13:40:22;;;;;;;;;;;18.50;82.30;;;;;;5106070;27;19923;-85
2023/05/04 13:42:47;;;;;;;;;;;18.50;83.80;;;;;;5102409;27;19968;-84
2023/05/04 13:45:13;;;;;;;;;;;18.50;81.90;;;;;;5082079;27;19923;-84
2023/05/04 13:47:39;;;;;;;;;;;18.60;81.50;;;;;;5092281;28;19932;-85
2023/05/04 13:50:05;;;;;;;;;;;18.60;81.20;;;;;;5099206;28;19930;-84
2023/05/04 13:52:31;;;;;;;;;;;18.70;81.00;;;;;;5082663;28;19924;-85
2023/05/04 13:54:57;;;;;;;;;;;18.90;79.70;;;;;;5096292;28;19932;-84
2023/05/04 13:57:25;;;;;;;;;;;18.90;81.00;;;;;;5101753;27;19924;-84
2023/05/04 13:59:51;;;;;;;;;;;19.00;78.70;;;;;;5085402;27;20359;-84
2023/05/04 14:02:17;;;;;;;;;;;19.20;77.20;;;;;;5076410;28;19935;-84
2023/05/04 14:04:43;;;;;;;;;;;19.20;78.80;;;;;;5083496;27;19930;-84
2023/05/04 14:07:09;;;;;;;;;;;19.20;78.40;;;;;;5088497;28;20295;-85
2023/05/04 14:09:35;;;;;;;;;;;19.20;76.50;;;;;;5107659;28;19923;-84
2023/05/04 14:12:01;;;;;;;;;;;19.10;76.50;;;;;;5108150;28;19930;-85
2023/05/04 14:14:27;;;;;;;;;;;19.10;76.20;;;;;;5089306;28;19931;-86
2023/05/04 14:16:55;;;;;;;;;;;19.20;77.70;;;;;;5105678;27;20271;-84
2023/05/04 14:19:21;;;;;;;;;;;19.10;78.40;;;;;;5101158;27;20370;-85